Time;durP1;ratioP1;P1;durP2;ratioP2;P2;SDS_P1;SDS_P2;PMS_P1;PMS_P2;Temp;Humidity;BMP_temperature;BMP_pressure;BME280_temperature;BME280_humidity;BME280_pressure;Samples;Min_cycle;Max_cycle;Signal;HPM_P1;HPM_P2
2022/08/02 00:00:00;;;;;;;9.88;2.40;;;;;;;18.91;49.65;101924.38;5139210;28;20422;-75
2022/08/02 00:02:33;;;;;;;6.80;2.13;;;;;;;18.86;49.75;101917.72;5132938;28;20412;-77
2022/08/02 00:05:06;;;;;;;10.43;2.85;;;;;;;18.90;49.89;101918.19;5137677;28;20430;-76
2022/08/02 00:07:40;;;;;;;4.67;2.00;;;;;;;18.89;49.84;101901.31;5136437;28;20434;-75
2022/08/02 00:10:13;;;;;;;6.32;2.10;;;;;;;18.72;50.20;101883.66;5137390;28;20435;-75
2022/08/02 00:12:45;;;;;;;5.38;1.70;;;;;;;18.81;50.21;101887.16;5138102;28;20445;-75
2022/08/02 00:15:17;;;;;;;5.57;2.40;;;;;;;18.81;50.29;101887.97;5134729;28;20469;-75
2022/08/02 00:17:50;;;;;;;6.53;2.08;;;;;;;18.72;50.36;101874.81;5137200;28;20519;-74
2022/08/02 00:20:23;;;;;;;8.25;2.00;;;;;;;18.78;50.43;101887.50;5131191;28;20789;-74
2022/08/02 00:22:57;;;;;;;7.97;1.80;;;;;;;18.75;50.62;101890.53;5133132;28;20901;-75
2022/08/02 00:25:29;;;;;;;7.25;2.20;;;;;;;18.74;50.55;101884.34;5136277;28;20433;-74
2022/08/02 00:28:01;;;;;;;4.15;1.70;;;;;;;18.75;50.58;101883.34;5132596;28;20432;-75
2022/08/02 00:30:34;;;;;;;6.03;1.98;;;;;;;18.75;50.68;101888.69;5131526;28;20436;-75
2022/08/02 00:33:07;;;;;;;4.53;1.65;;;;;;;18.74;50.69;101892.38;5134654;28;20952;-75
2022/08/02 00:35:39;;;;;;;4.87;1.60;;;;;;;18.73;50.89;101890.69;5132892;28;20434;-76
2022/08/02 00:38:14;;;;;;;5.97;1.80;;;;;;;18.74;50.93;101892.38;5134145;28;20500;-76
2022/08/02 00:40:48;;;;;;;5.17;1.70;;;;;;;18.75;51.01;101888.69;5135860;28;20440;-75
2022/08/02 00:43:20;;;;;;;5.18;1.90;;;;;;;18.70;50.83;101880.31;5135373;28;20909;-75
2022/08/02 00:45:52;;;;;;;4.20;1.88;;;;;;;18.75;50.97;101885.19;5137259;28;20832;-75
2022/08/02 00:48:27;;;;;;;8.13;2.15;;;;;;;18.68;51.04;101868.97;5132710;28;20394;-75
2022/08/02 00:50:59;;;;;;;7.93;2.08;;;;;;;18.63;50.92;101864.16;5133230;28;20424;-76
2022/08/02 00:53:34;;;;;;;5.28;2.55;;;;;;;18.76;50.88;101884.16;5134056;28;20418;-76
2022/08/02 00:56:06;;;;;;;11.32;3.10;;;;;;;18.75;50.94;101877.97;5132121;28;20423;-76
2022/08/02 00:58:39;;;;;;;7.65;2.30;;;;;;;18.74;50.76;101865.63;5130701;28;20809;-75
2022/08/02 01:01:11;;;;;;;9.18;2.47;;;;;;;18.73;50.80;101868.47;5135311;28;20527;-75
2022/08/02 01:03:44;;;;;;;8.43;2.55;;;;;;;18.77;50.63;101875.97;5134359;28;20432;-76
2022/08/02 01:06:17;;;;;;;5.68;2.00;;;;;;;18.77;50.65;101870.63;5129919;28;20438;-75
2022/08/02 01:08:51;;;;;;;11.85;2.45;;;;;;;18.75;50.78;101872.63;5135463;28;20437;-76
2022/08/02 01:11:23;;;;;;;5.57;1.95;;;;;;;18.68;50.70;101852.94;5131108;28;20432;-75
2022/08/02 01:13:59;;;;;;;6.18;1.70;;;;;;;18.77;50.63;101859.91;5132071;28;20501;-76
2022/08/02 01:16:37;;;;;;;8.20;2.17;;;;;;;18.78;50.54;101860.75;5130480;28;20497;-76
2022/08/02 01:19:29;;;;;;;5.70;1.73;;;;;;;18.80;50.39;101856.88;5129283;28;20468;-76
2022/08/02 01:22:27;;;;;;;9.67;2.20;;;;;;;18.72;50.44;101834.66;5132353;28;20530;-75
2022/08/02 01:25:14;;;;;;;6.18;1.70;;;;;;;18.81;50.41;101850.50;5131447;28;20876;-75
2022/08/02 01:28:15;;;;;;;11.65;2.42;;;;;;;18.79;50.21;101849.84;5135559;28;20509;-75
2022/08/02 01:30:50;;;;;;;9.37;2.27;;;;;;;18.83;50.21;101842.31;5133638;28;20429;-75
2022/08/02 01:33:28;;;;;;;6.38;1.65;;;;;;;18.87;50.33;101860.50;5130597;28;20435;-75
2022/08/02 01:36:03;;;;;;;6.10;2.35;;;;;;;18.85;50.38;101862.50;5137593;28;20425;-75
2022/08/02 01:38:39;;;;;;;4.55;1.50;;;;;;;18.82;50.46;101857.50;5135809;28;20427;-75
2022/08/02 01:41:18;;;;;;;3.75;1.73;;;;;;;18.73;50.21;101842.53;5132345;28;20947;-75
2022/08/02 01:43:56;;;;;;;6.77;1.53;;;;;;;18.80;50.42;101859.56;5134685;28;20782;-75
2022/08/02 01:46:32;;;;;;;4.90;1.63;;;;;;;18.81;50.23;101855.03;5132269;28;20411;-75
2022/08/02 01:49:08;;;;;;;7.60;2.00;;;;;;;18.70;50.35;101831.31;5120916;28;21129;-75
2022/08/02 01:54:34;;;;;;;8.75;2.20;;;;;;;18.80;50.22;101835.47;5132449;28;20420;-75
2022/08/02 01:57:09;;;;;;;7.88;1.52;;;;;;;18.79;50.39;101841.81;5134899;28;20448;-75
2022/08/02 01:59:45;;;;;;;7.97;2.30;;;;;;;18.76;50.42;101836.00;5135454;28;20442;-76
2022/08/02 02:02:19;;;;;;;8.82;2.50;;;;;;;18.74;50.30;101822.81;5139625;28;21106;-74
2022/08/02 02:04:53;;;;;;;6.17;2.13;;;;;;;18.73;50.29;101829.16;5131031;28;20438;-76
2022/08/02 02:07:26;;;;;;;13.15;2.90;;;;;;;18.69;50.47;101829.69;5132536;28;20433;-75
2022/08/02 02:10:00;;;;;;;7.50;1.80;;;;;;;18.63;50.44;101832.03;5135285;28;21059;-75
2022/08/02 02:12:34;;;;;;;8.05;2.53;;;;;;;18.61;50.40;101819.84;5137719;28;20423;-77
2022/08/02 02:15:12;;;;;;;9.20;2.47;;;;;;;18.39;50.51;101787.56;5130098;28;21010;-75
2022/08/02 02:17:46;;;;;;;7.73;2.00;;;;;;;18.54;50.61;101821.59;5131045;28;20424;-76
2022/08/02 02:20:20;;;;;;;7.60;2.10;;;;;;;18.53;50.46;101820.75;5129427;28;21014;-75
2022/08/02 02:22:53;;;;;;;13.95;2.13;;;;;;;18.49;50.43;101824.81;5134686;28;24345;-76
2022/08/02 02:25:25;;;;;;;5.28;2.30;;;;;;;18.28;50.29;101793.34;5139236;28;20427;-75
2022/08/02 02:28:05;;;;;;;9.43;2.33;;;;;;;18.58;50.27;101830.91;5131003;28;20521;-76
2022/08/02 02:30:42;;;;;;;6.03;1.67;;;;;;;18.60;50.23;101828.91;5135405;28;20816;-76
2022/08/02 02:33:18;;;;;;;8.13;2.00;;;;;;;18.45;50.06;101818.13;5135850;28;20801;-77
2022/08/02 02:35:52;;;;;;;6.32;2.28;;;;;;;18.60;50.06;101826.22;5134011;28;20436;-75
2022/08/02 02:38:30;;;;;;;6.47;1.50;;;;;;;18.61;50.04;101823.38;5127188;28;20436;-75
2022/08/02 02:41:05;;;;;;;11.88;2.00;;;;;;;18.58;49.73;101820.19;5136743;28;20419;-76
2022/08/02 02:43:39;;;;;;;8.68;1.63;;;;;;;18.59;49.84;101812.00;5134856;28;20429;-75
2022/08/02 02:46:14;;;;;;;8.15;2.05;;;;;;;18.60;49.88;101815.53;5135936;28;21015;-76
2022/08/02 02:48:46;;;;;;;14.43;3.03;;;;;;;18.57;49.79;101815.88;5135659;28;20439;-77
2022/08/02 02:51:21;;;;;;;18.10;2.50;;;;;;;18.57;49.53;101805.19;5132655;28;20441;-75
2022/08/02 02:53:54;;;;;;;8.95;1.77;;;;;;;18.52;49.57;101791.50;5137191;28;20899;-76
2022/08/02 02:56:26;;;;;;;9.13;2.10;;;;;;;18.51;49.42;101788.00;5135562;28;20414;-76
2022/08/02 02:58:59;;;;;;;10.40;2.13;;;;;;;18.51;49.43;101795.19;5133277;28;20418;-75
2022/08/02 03:01:33;;;;;;;9.77;2.10;;;;;;;18.43;49.44;101794.25;5134214;28;20412;-76
2022/08/02 03:04:09;;;;;;;7.50;2.27;;;;;;;18.50;49.11;101798.88;5138536;28;20437;-74
2022/08/02 03:06:41;;;;;;;13.40;2.22;;;;;;;18.40;49.13;101781.22;5135444;28;20430;-75
2022/08/02 03:09:14;;;;;;;18.03;2.33;;;;;;;18.42;48.93;101791.72;5135045;28;20473;-75
2022/08/02 03:11:47;;;;;;;6.37;1.43;;;;;;;18.48;48.79;101795.53;5142083;28;20510;-76
2022/08/02 03:14:20;;;;;;;7.53;1.92;;;;;;;18.44;48.85;101790.56;5137926;28;20436;-75
2022/08/02 03:16:55;;;;;;;4.00;1.58;;;;;;;18.39;48.82;101782.22;5138553;28;20440;-77
2022/08/02 03:19:27;;;;;;;7.05;1.60;;;;;;;18.37;48.93;101781.59;5135635;28;20440;-75
2022/08/02 03:21:59;;;;;;;10.95;1.80;;;;;;;18.32;49.15;101783.94;5135980;28;20422;-75
2022/08/02 03:24:32;;;;;;;3.70;1.58;;;;;;;18.31;48.95;101790.31;5137365;28;20795;-76
2022/08/02 03:27:04;;;;;;;5.45;1.50;;;;;;;17.94;49.18;101722.38;5130357;28;20772;-76
2022/08/02 03:29:36;;;;;;;6.70;2.28;;;;;;;18.32;49.19;101786.63;5139309;28;20449;-75
2022/08/02 03:32:11;;;;;;;8.10;1.73;;;;;;;18.18;49.48;101753.47;5137482;28;20416;-75
2022/08/02 03:34:43;;;;;;;6.85;1.98;;;;;;;18.34;49.25;101773.91;5134998;28;20518;-76
2022/08/02 03:37:16;;;;;;;6.57;2.07;;;;;;;18.35;49.18;101785.44;5141984;28;20775;-80
2022/08/02 03:39:49;;;;;;;6.38;1.77;;;;;;;18.33;49.16;101782.94;5138869;28;20424;-77
2022/08/02 03:42:22;;;;;;;5.28;1.77;;;;;;;18.31;49.38;101787.66;5134486;28;20432;-76
2022/08/02 03:44:56;;;;;;;8.48;2.03;;;;;;;18.33;49.36;101782.94;5142222;28;20430;-77
2022/08/02 03:47:30;;;;;;;8.05;2.13;;;;;;;18.30;49.46;101772.63;5137489;28;20410;-76
2022/08/02 03:50:03;;;;;;;4.95;2.03;;;;;;;18.35;49.33;101770.22;5138099;28;20971;-77
2022/08/02 03:52:36;;;;;;;3.40;1.38;;;;;;;18.32;49.78;101765.22;5137228;28;20582;-75
2022/08/02 03:55:10;;;;;;;4.07;1.35;;;;;;;18.33;49.46;101769.56;5132867;28;20434;-76
2022/08/02 03:57:44;;;;;;;8.60;2.78;;;;;;;18.32;49.40;101759.88;5133828;28;20880;-76
2022/08/02 04:00:21;;;;;;;4.97;1.60;;;;;;;18.32;49.55;101759.88;5134529;28;20842;-75
2022/08/02 04:02:55;;;;;;;2.92;1.30;;;;;;;18.31;49.65;101762.75;5137959;28;20497;-75
2022/08/02 04:05:27;;;;;;;6.07;1.75;;;;;;;18.29;49.84;101757.56;5133422;28;20436;-76
2022/08/02 04:07:59;;;;;;;4.25;1.50;;;;;;;18.28;49.61;101747.88;5141365;28;20773;-75
2022/08/02 04:11:29;;;;;;;6.18;1.73;;;;;;;18.22;49.66;101743.25;5133024;28;20773;-75
2022/08/02 04:13:28;;;;;;;4.70;1.50;;;;;;;18.27;49.62;101746.22;5135853;28;20404;-75
2022/08/02 04:16:08;;;;;;;6.78;1.60;;;;;;;18.28;49.73;101742.53;5136145;28;20782;-75
2022/08/02 04:18:49;;;;;;;5.55;1.55;;;;;;;18.26;49.65;101736.53;5136047;28;20419;-76
2022/08/02 04:21:26;;;;;;;5.67;1.40;;;;;;;18.25;49.71;101732.19;5143050;28;20430;-75
2022/08/02 04:24:00;;;;;;;5.07;1.60;;;;;;;18.32;49.59;101732.31;5146933;28;21336;-76
2022/08/02 04:26:34;;;;;;;6.32;1.77;;;;;;;18.34;49.57;101736.47;5143325;28;20415;-75
2022/08/02 04:29:06;;;;;;;7.53;1.83;;;;;;;18.39;49.48;101738.59;5142446;28;20422;-75
2022/08/02 04:31:41;;;;;;;5.80;1.73;;;;;;;18.43;49.46;101746.09;5141324;28;20469;-75
2022/08/02 04:34:15;;;;;;;3.72;1.42;;;;;;;18.48;49.41;101736.69;5148998;28;20516;-75
2022/08/02 04:36:48;;;;;;;8.85;2.00;;;;;;;18.44;49.30;101734.38;5148773;28;20434;-74
2022/08/02 04:39:20;;;;;;;5.22;1.65;;;;;;;18.54;49.37;101738.66;5150005;28;20426;-74
2022/08/02 04:41:52;;;;;;;5.72;1.50;;;;;;;18.57;49.21;101735.63;5149484;28;20915;-74
2022/08/02 04:44:25;;;;;;;5.28;1.52;;;;;;;18.62;49.18;101733.25;5149820;28;20407;-74
2022/08/02 04:47:02;;;;;;;7.72;1.67;;;;;;;18.56;49.08;101723.25;5147545;28;20423;-74
2022/08/02 04:49:35;;;;;;;3.53;1.60;;;;;;;18.68;49.09;101740.53;5146568;28;21019;-75
2022/08/02 04:52:08;;;;;;;7.40;1.60;;;;;;;18.72;48.82;101728.47;5146387;28;20427;-74
2022/08/02 04:54:40;;;;;;;5.20;1.55;;;;;;;18.74;48.84;101725.66;5148198;28;20435;-74
2022/08/02 05:00:02;;;;;;;6.50;1.83;;;;;;;18.83;48.64;101730.72;5147448;28;20424;-74
2022/08/02 05:02:35;;;;;;;6.53;1.92;;;;;;;18.91;48.46;101735.16;5145665;28;20463;-74
2022/08/02 05:05:09;;;;;;;4.00;1.90;;;;;;;18.99;48.43;101742.28;5148708;28;20525;-74
2022/08/02 05:07:41;;;;;;;5.90;1.63;;;;;;;19.05;48.23;101739.72;5149482;28;20773;-74
2022/08/02 05:10:14;;;;;;;8.18;1.73;;;;;;;19.09;48.14;101750.88;5145328;28;20908;-73
2022/08/02 05:12:49;;;;;;;4.60;1.50;;;;;;;19.12;48.01;101740.63;5147226;28;20443;-75
2022/08/02 05:15:22;;;;;;;5.30;1.85;;;;;;;19.26;48.05;101741.66;5148328;28;20457;-75
2022/08/02 05:17:54;;;;;;;4.72;1.60;;;;;;;19.33;47.98;101737.22;5144925;28;20407;-75
2022/08/02 05:20:28;;;;;;;11.55;2.20;;;;;;;19.41;47.78;101743.47;5146328;28;20426;-72
2022/08/02 05:23:02;;;;;;;6.63;1.92;;;;;;;19.43;47.76;101733.41;5146133;28;20756;-75
2022/08/02 05:25:34;;;;;;;9.32;1.77;;;;;;;19.64;47.61;101754.09;5142295;28;20484;-75
2022/08/02 05:28:06;;;;;;;7.65;1.55;;;;;;;19.80;47.44;101760.09;5148778;28;20429;-74
2022/08/02 05:30:39;;;;;;;6.60;1.90;;;;;;;19.96;47.19;101747.47;5148495;28;20437;-75
2022/08/02 05:33:11;;;;;;;9.00;2.97;;;;;;;20.02;47.14;101730.63;5148740;28;20448;-75
2022/08/02 05:35:45;;;;;;;14.25;2.83;;;;;;;20.00;46.82;101722.75;5161963;28;20427;-79
2022/08/02 05:38:18;;;;;;;10.52;2.83;;;;;;;20.33;46.65;101753.63;5157879;28;20535;-79
2022/08/02 05:40:50;;;;;;;9.15;2.20;;;;;;;20.75;46.45;101757.31;5154022;28;20418;-78
2022/08/02 05:43:23;;;;;;;6.43;2.37;;;;;;;21.74;45.29;101746.34;5150072;28;20515;-77
2022/08/02 05:45:55;;;;;;;8.68;2.50;;;;;;;22.77;44.13;101763.91;5166718;28;20411;-78
2022/08/02 05:48:27;;;;;;;7.53;2.63;;;;;;;23.66;42.98;101756.25;5154859;28;20440;-79
2022/08/02 05:51:05;;;;;;;14.00;3.00;;;;;;;24.72;41.91;101758.31;5151285;28;20580;-77
2022/08/02 05:53:41;;;;;;;8.90;2.10;;;;;;;26.09;40.26;101760.72;5151122;28;20501;-78
2022/08/02 05:56:22;;;;;;;6.07;1.95;;;;;;;27.33;39.08;101747.13;5147342;28;20426;-78
2022/08/02 05:59:04;;;;;;;11.87;2.60;;;;;;;28.14;38.21;101738.91;5147455;28;20411;-77
2022/08/02 06:01:40;;;;;;;6.17;2.43;;;;;;;28.29;37.95;101719.34;5145388;28;20529;-78
2022/08/02 06:04:21;;;;;;;9.23;2.65;;;;;;;28.20;38.01;101718.94;5145527;28;20431;-78
2022/08/02 06:07:01;;;;;;;7.65;2.08;;;;;;;28.28;37.66;101717.72;5147180;28;20533;-78
2022/08/02 06:09:34;;;;;;;18.60;2.17;;;;;;;28.48;37.23;101720.75;5148374;28;20546;-78
2022/08/02 06:12:10;;;;;;;4.50;1.73;;;;;;;28.57;37.02;101717.63;5133470;28;20870;-77
2022/08/02 06:14:42;;;;;;;5.60;1.98;;;;;;;28.98;36.72;101723.66;5130749;28;20424;-78
2022/08/02 06:17:15;;;;;;;4.80;1.88;;;;;;;29.44;35.93;101713.38;5131823;28;20424;-77
2022/08/02 06:19:48;;;;;;;7.65;2.20;;;;;;;29.70;35.68;101690.81;5135176;28;20779;-78
2022/08/02 06:22:25;;;;;;;6.25;2.15;;;;;;;30.06;35.19;101693.84;5133058;28;20428;-79
2022/08/02 06:24:59;;;;;;;6.55;2.03;;;;;;;30.61;34.86;101711.75;5128942;28;20408;-78
2022/08/02 06:27:31;;;;;;;4.63;1.90;;;;;;;31.06;34.17;101707.63;5058527;28;20428;-78
2022/08/02 06:30:07;;;;;;;7.10;2.65;;;;;;;31.44;33.90;101703.72;5124703;28;20430;-78
2022/08/02 06:32:41;;;;;;;6.82;2.13;;;;;;;31.88;33.51;101699.69;5132485;28;20429;-77
2022/08/02 06:35:14;;;;;;;8.10;2.03;;;;;;;32.31;33.06;101700.25;5130664;28;20539;-78
2022/08/02 06:37:53;;;;;;;7.93;2.28;;;;;;;32.45;32.44;101701.34;5127744;28;20937;-78
2022/08/02 06:40:30;;;;;;;10.27;2.78;;;;;;;32.42;32.70;101693.66;5126932;28;20893;-78
2022/08/02 06:43:12;;;;;;;8.43;2.50;;;;;;;32.61;32.21;101688.44;5125356;28;20523;-78
2022/08/02 06:45:45;;;;;;;8.75;3.30;;;;;;;32.71;32.31;101704.03;5127711;28;20408;-78
2022/08/02 06:48:17;;;;;;;8.20;2.92;;;;;;;32.86;32.07;101686.75;5131732;28;20863;-78
2022/08/02 06:50:50;;;;;;;7.15;3.13;;;;;;;33.29;31.62;101712.56;5126801;28;20661;-78
2022/08/02 06:53:26;;;;;;;9.82;3.35;;;;;;;33.24;31.66;101713.44;5141436;28;20527;-78
2022/08/02 06:56:00;;;;;;;10.23;3.38;;;;;;;32.73;31.78;101677.22;5139482;28;20416;-78
2022/08/02 06:58:35;;;;;;;10.80;3.03;;;;;;;33.10;31.81;101681.47;5132285;28;20439;-79
2022/08/02 07:01:08;;;;;;;11.70;3.20;;;;;;;33.35;31.27;101695.03;5130306;28;20447;-78
2022/08/02 07:03:41;;;;;;;9.75;3.53;;;;;;;33.49;30.91;101682.34;5131665;28;20909;-78
2022/08/02 07:06:14;;;;;;;4.85;2.60;;;;;;;34.05;30.72;101683.09;5119449;28;20916;-78
2022/08/02 07:08:48;;;;;;;14.50;3.50;;;;;;;34.44;30.11;101666.53;5126613;28;20428;-78
2022/08/02 07:11:21;;;;;;;7.28;2.95;;;;;;;34.54;30.32;101682.91;5127893;28;20458;-78
2022/08/02 07:13:53;;;;;;;8.35;3.47;;;;;;;34.25;30.11;101671.09;5130226;28;20825;-78
2022/08/02 07:16:26;;;;;;;14.43;3.70;;;;;;;33.74;30.93;101669.59;5130041;28;20412;-78
2022/08/02 07:18:58;;;;;;;8.23;3.72;;;;;;;33.58;31.14;101684.53;5130412;28;20431;-77
2022/08/02 07:21:30;;;;;;;7.75;3.50;;;;;;;33.72;31.13;101680.84;5129283;28;20412;-78
2022/08/02 07:24:05;;;;;;;9.75;4.03;;;;;;;33.78;30.81;101656.97;5127893;28;20416;-78
2022/08/02 07:26:37;;;;;;;8.13;4.40;;;;;;;33.69;30.44;101609.38;5133593;28;20424;-78
2022/08/02 07:29:09;;;;;;;8.77;4.13;;;;;;;34.18;30.65;101657.72;5133683;28;20422;-78
2022/08/02 07:31:42;;;;;;;8.73;4.43;;;;;;;34.66;30.17;101671.53;5132118;28;20424;-78
2022/08/02 07:34:14;;;;;;;7.65;3.90;;;;;;;35.05;30.11;101667.75;5131931;28;20837;-78
2022/08/02 07:36:46;;;;;;;8.90;3.90;;;;;;;35.26;29.56;101657.31;5132926;28;20781;-78
2022/08/02 07:39:20;;;;;;;7.50;4.03;;;;;;;35.36;29.72;101661.84;5132521;28;20515;-78
2022/08/02 07:41:53;;;;;;;7.63;4.20;;;;;;;35.57;29.85;101663.19;5135908;28;20522;-78
2022/08/02 07:44:31;;;;;;;8.45;4.45;;;;;;;35.56;29.63;101640.41;5131145;28;20841;-77
2022/08/02 07:47:05;;;;;;;7.65;4.03;;;;;;;35.59;29.76;101658.22;5132684;28;20762;-77
2022/08/02 07:49:37;;;;;;;7.93;4.22;;;;;;;35.55;29.89;101655.28;5129067;28;20412;-76
2022/08/02 07:52:09;;;;;;;9.23;4.43;;;;;;;35.62;29.59;101654.03;5135926;28;20420;-75
2022/08/02 07:54:43;;;;;;;11.20;4.78;;;;;;;35.04;29.96;101617.53;5131863;28;20420;-74
2022/08/02 07:57:15;;;;;;;8.18;4.35;;;;;;;34.83;30.67;101654.56;5134333;28;20846;-77
2022/08/02 07:59:49;;;;;;;9.70;5.07;;;;;;;34.25;31.22;101636.25;5133328;28;20452;-77
2022/08/02 08:02:23;;;;;;;8.45;5.47;;;;;;;33.82;31.08;101616.09;5133356;28;20940;-76
2022/08/02 08:04:55;;;;;;;11.98;4.50;;;;;;;33.79;31.65;101636.69;5128470;28;20416;-77
2022/08/02 08:07:28;;;;;;;9.75;4.95;;;;;;;33.64;31.41;101623.13;5130130;28;20726;-77
2022/08/02 08:10:02;;;;;;;9.57;5.20;;;;;;;33.85;31.31;101631.97;5130895;28;20471;-76
2022/08/02 08:12:34;;;;;;;7.90;4.65;;;;;;;33.86;31.81;101633.63;5133210;28;20499;-76
2022/08/02 08:15:07;;;;;;;9.10;5.15;;;;;;;34.03;31.48;101630.47;5140823;28;20429;-76
2022/08/02 08:17:40;;;;;;;9.57;4.95;;;;;;;34.19;31.54;101634.69;5142155;28;20744;-76
2022/08/02 08:20:13;;;;;;;9.38;5.22;;;;;;;34.23;31.33;101630.28;5138812;28;20525;-79
2022/08/02 08:22:45;;;;;;;8.63;4.60;;;;;;;34.12;31.43;101623.25;5148557;28;20517;-78
2022/08/02 08:25:19;;;;;;;11.00;5.27;;;;;;;34.17;31.64;101634.19;5141896;28;20500;-78
2022/08/02 08:27:52;;;;;;;11.75;5.10;;;;;;;34.26;31.59;101637.13;5134666;28;20447;-79
2022/08/02 08:30:24;;;;;;;9.80;4.53;;;;;;;34.01;31.69;101622.53;5131385;28;20643;-78
2022/08/02 08:32:57;;;;;;;8.90;4.47;;;;;;;34.22;31.78;101647.00;5144308;28;20404;-76
2022/08/02 08:35:29;;;;;;;9.67;4.57;;;;;;;34.26;31.91;101657.13;5130185;28;20404;-77
2022/08/02 08:38:02;;;;;;;7.55;5.03;;;;;;;34.05;32.13;101644.72;5132132;28;20462;-77
2022/08/02 08:40:36;;;;;;;7.95;4.45;;;;;;;33.86;32.12;101648.13;5127700;28;20417;-78
2022/08/02 08:43:08;;;;;;;13.30;5.83;;;;;;;33.68;32.24;101640.63;5131476;28;21071;-77
2022/08/02 08:45:41;;;;;;;9.43;5.13;;;;;;;33.42;32.48;101649.00;5129033;28;20450;-76
2022/08/02 08:48:17;;;;;;;10.27;5.80;;;;;;;33.19;32.63;101638.72;5129079;28;20491;-76
2022/08/02 08:50:55;;;;;;;10.95;5.15;;;;;;;33.01;32.92;101646.47;5129299;28;20424;-77
2022/08/02 08:53:29;;;;;;;9.18;5.60;;;;;;;32.85;33.13;101661.31;5129336;28;20428;-77
2022/08/02 08:56:04;;;;;;;10.75;5.72;;;;;;;32.72;33.03;101662.72;5128643;28;21151;-77
2022/08/02 08:58:37;;;;;;;9.45;5.70;;;;;;;32.60;33.32;101648.53;5130774;28;20465;-77
2022/08/02 09:01:10;;;;;;;10.73;6.10;;;;;;;32.38;33.37;101633.25;5134678;28;20420;-76
2022/08/02 09:03:44;;;;;;;6.30;4.20;;;;;;;32.24;33.48;101639.56;5131172;28;20492;-76
2022/08/02 09:06:17;;;;;;;13.45;5.40;;;;;;;32.20;33.56;101652.97;5130655;28;20420;-78
2022/08/02 09:08:49;;;;;;;12.57;5.53;;;;;;;32.06;33.55;101609.00;5131564;28;20846;-77
2022/08/02 09:11:27;;;;;;;9.43;5.45;;;;;;;32.23;33.48;101640.66;5134781;28;20416;-79
2022/08/02 09:14:02;;;;;;;8.23;5.88;;;;;;;32.03;33.55;101642.34;5150493;28;20426;-79
2022/08/02 09:16:36;;;;;;;11.60;6.80;;;;;;;31.99;33.71;101633.03;5143713;28;20519;-78
2022/08/02 09:19:21;;;;;;;11.93;6.47;;;;;;;31.84;33.97;101649.44;5142085;28;20454;-79
2022/08/02 09:22:03;;;;;;;11.40;6.30;;;;;;;31.69;34.16;101631.13;5138125;28;20483;-79
2022/08/02 09:24:45;;;;;;;13.53;7.00;;;;;;;31.67;34.20;101636.84;5135652;28;20499;-79
2022/08/02 09:27:20;;;;;;;10.85;6.25;;;;;;;31.42;34.58;101617.72;5135303;28;20925;-79
2022/08/02 09:29:54;;;;;;;10.00;6.63;;;;;;;31.23;34.66;101604.56;5138162;28;20517;-81
2022/08/02 09:32:28;;;;;;;10.85;6.35;;;;;;;31.33;34.66;101636.50;5145617;28;20404;-79
2022/08/02 09:35:00;;;;;;;10.98;6.95;;;;;;;31.25;34.98;101645.22;5138984;28;20446;-79
2022/08/02 09:37:33;;;;;;;12.37;6.70;;;;;;;31.29;34.89;101648.25;5134630;28;20533;-80
2022/08/02 09:40:08;;;;;;;7.63;5.50;;;;;;;30.97;35.10;101622.78;5129618;28;20506;-80
2022/08/02 09:42:59;;;;;;;7.28;5.20;;;;;;;31.03;35.36;101653.59;5132416;28;20428;-81
2022/08/02 09:45:33;;;;;;;7.65;5.32;;;;;;;30.94;35.43;101655.19;5127422;28;20502;-79
2022/08/02 09:48:08;;;;;;;10.05;5.55;;;;;;;30.57;35.32;101620.66;5127364;28;20550;-80
2022/08/02 09:50:44;;;;;;;9.63;6.07;;;;;;;30.68;35.45;101660.50;5131679;28;21016;-80
2022/08/02 09:53:19;;;;;;;9.35;6.72;;;;;;;30.45;35.85;101636.41;5132080;28;20432;-80
2022/08/02 09:55:56;;;;;;;10.27;5.97;;;;;;;30.31;35.68;101617.78;5131926;28;20431;-78
2022/08/02 09:58:30;;;;;;;12.27;6.57;;;;;;;30.62;35.78;101652.56;5130319;28;20500;-80
2022/08/02 10:01:03;;;;;;;8.73;5.65;;;;;;;30.69;35.72;101656.72;5127174;28;21032;-79
2022/08/02 10:03:36;;;;;;;10.43;5.88;;;;;;;30.82;35.71;101646.44;5132790;28;20559;-79
2022/08/02 10:06:08;;;;;;;12.17;6.60;;;;;;;31.12;35.59;101656.63;5129020;28;20416;-78
2022/08/02 10:08:41;;;;;;;11.10;6.10;;;;;;;31.19;35.35;101641.66;5129891;28;20424;-79
2022/08/02 10:11:13;;;;;;;14.57;6.30;;;;;;;31.31;35.41;101662.41;5133850;28;21001;-79
2022/08/02 10:13:47;;;;;;;10.27;6.03;;;;;;;31.19;35.33;101652.56;5129073;28;20439;-80
2022/08/02 10:16:23;;;;;;;6.63;4.20;;;;;;;31.28;35.46;101641.13;5131203;28;20428;-78
2022/08/02 10:18:58;;;;;;;11.30;5.15;;;;;;;31.26;35.22;101632.41;5130704;28;20418;-79
2022/08/02 10:21:38;;;;;;;7.38;5.30;;;;;;;31.56;35.23;101646.13;5131323;28;20450;-80
2022/08/02 10:24:13;;;;;;;8.68;5.65;;;;;;;31.76;34.90;101644.50;5122926;28;20408;-79
2022/08/02 10:26:48;;;;;;;8.90;5.65;;;;;;;31.55;34.75;101589.88;5126817;28;20865;-79
2022/08/02 10:29:31;;;;;;;11.15;5.50;;;;;;;32.07;34.75;101648.88;5132358;28;20438;-79
2022/08/02 10:32:07;;;;;;;8.63;5.43;;;;;;;32.06;34.97;101650.00;5129957;28;20420;-79
2022/08/02 10:34:46;;;;;;;11.73;5.95;;;;;;;31.77;34.88;101591.50;5125384;28;20910;-80
2022/08/02 10:37:21;;;;;;;14.20;5.95;;;;;;;31.99;34.65;101627.56;5129123;28;20432;-78
2022/08/02 10:39:57;;;;;;;9.70;5.28;;;;;;;31.97;34.72;101613.38;5130435;28;20428;-78
2022/08/02 10:42:47;;;;;;;9.90;5.28;;;;;;;31.93;34.50;101601.34;5120753;28;20446;-85
2022/08/02 10:45:23;;;;;;;9.27;5.65;;;;;;;31.75;34.36;101574.59;5116971;28;20424;-79
2022/08/02 10:48:02;;;;;;;12.18;5.60;;;;;;;31.77;34.51;101597.78;5133496;28;20909;-82
2022/08/02 10:50:54;;;;;;;9.55;5.75;;;;;;;31.63;34.63;101559.28;5109705;28;20423;-85
2022/08/02 10:53:29;;;;;;;7.45;4.85;;;;;;;32.37;34.07;101644.47;5124358;28;20503;-80
2022/08/02 10:56:06;;;;;;;11.10;5.72;;;;;;;32.44;34.04;101625.91;5127487;28;20435;-87
2022/08/02 10:58:39;;;;;;;10.57;5.18;;;;;;;32.57;33.76;101636.22;5122815;28;20432;-82
2022/08/02 11:07:38;;;;;;;3.15;2.58;;;;;;;32.76;33.54;101638.34;5084062;28;20450;-38
2022/08/02 11:10:37;;;;;;;5.13;1.90;;;;;;;32.69;33.51;101635.13;5083380;29;20502;-39
2022/08/02 11:13:12;;;;;;;6.28;2.00;;;;;;;32.70;33.16;101631.28;5065031;29;21033;-40
2022/08/02 11:16:04;;;;;;;4.57;1.98;;;;;;;32.75;32.81;101618.41;5067507;29;20993;-40
2022/08/02 11:19:04;;;;;;;5.93;2.00;;;;;;;32.84;32.52;101610.44;5064557;29;20413;-41
2022/08/02 11:21:37;;;;;;;7.22;2.03;;;;;;;32.87;32.60;101618.06;5035422;29;20415;-39
2022/08/02 11:24:30;;;;;;;4.28;2.10;;;;;;;32.96;32.49;101630.06;5060975;29;20439;-39
2022/08/02 11:27:04;;;;;;;3.28;2.08;;;;;;;32.88;32.27;101627.09;5062843;29;20436;-39
2022/08/02 11:29:39;;;;;;;5.00;2.23;;;;;;;32.73;32.63;101630.72;5058263;29;20425;-39
2022/08/02 11:32:20;;;;;;;12.40;1.98;;;;;;;32.54;32.69;101634.06;5061890;29;20937;-40
2022/08/02 11:34:55;;;;;;;6.82;2.08;;;;;;;32.49;32.55;101623.16;5061485;29;20433;-40
2022/08/02 11:37:31;;;;;;;5.45;2.53;;;;;;;32.49;32.70;101625.88;5061774;29;20425;-40
2022/08/02 11:40:06;;;;;;;5.93;2.65;;;;;;;32.53;32.47;101626.97;5064590;29;20425;-39
2022/08/02 11:42:43;;;;;;;5.60;2.83;;;;;;;32.45;32.93;101624.78;5065332;29;20789;-39
2022/08/02 11:45:18;;;;;;;5.55;2.83;;;;;;;32.50;32.80;101627.50;5063121;29;20447;-39
2022/08/02 11:47:53;;;;;;;8.15;2.95;;;;;;;32.70;32.56;101634.00;5064089;29;20426;-39
2022/08/02 11:50:26;;;;;;;9.60;4.00;;;;;;;32.80;32.78;101625.78;5061040;29;20781;-40
2022/08/02 11:52:58;;;;;;;12.90;3.37;;;;;;;32.81;32.89;101621.94;5062388;29;20449;-40
2022/08/02 11:55:32;;;;;;;10.88;4.25;;;;;;;32.86;32.84;101623.81;5062402;29;20839;-40
2022/08/02 11:58:06;;;;;;;11.45;4.05;;;;;;;32.77;33.07;101616.22;5063296;29;20424;-39
2022/08/02 12:00:39;;;;;;;7.97;3.57;;;;;;;32.76;33.04;101611.00;5066198;29;20437;-39
2022/08/02 12:03:12;;;;;;;11.30;3.80;;;;;;;32.77;33.14;101615.41;5065969;29;20778;-39
2022/08/02 12:05:50;;;;;;;9.48;4.05;;;;;;;32.69;33.59;101608.56;5064993;29;20443;-39
2022/08/02 12:08:25;;;;;;;8.40;3.30;;;;;;;32.69;33.49;101618.69;5065673;29;20433;-40
2022/08/02 12:11:02;;;;;;;12.13;3.42;;;;;;;32.63;33.57;101619.81;5054853;29;20597;-40